sensor_id;sensor_type;location;lat;lon;timestamp;pressure;altitude;pressure_sealevel;temperature;humidity
60019;BME280;45870;42.528;26.740;2023-02-01T00:01:44;99671.06;;;9.08;46.92
60019;BME280;45870;42.528;26.740;2023-02-01T00:04:10;99534.34;;;8.80;45.19
60019;BME280;45870;42.528;26.740;2023-02-01T00:06:37;99675.63;;;9.26;45.34
60019;BME280;45870;42.528;26.740;2023-02-01T00:09:03;99665.91;;;9.25;45.37
60019;BME280;45870;42.528;26.740;2023-02-01T00:11:29;99674.38;;;9.58;44.92
60019;BME280;45870;42.528;26.740;2023-02-01T00:13:56;99684.75;;;8.45;47.72
60019;BME280;45870;42.528;26.740;2023-02-01T00:16:25;99680.78;;;8.91;46.92
60019;BME280;45870;42.528;26.740;2023-02-01T00:18:58;99679.31;;;8.95;46.93
60019;BME280;45870;42.528;26.740;2023-02-01T00:21:25;99682.06;;;8.45;48.31
60019;BME280;45870;42.528;26.740;2023-02-01T00:23:51;99685.19;;;7.86;49.96
60019;BME280;45870;42.528;26.740;2023-02-01T00:26:34;99684.97;;;8.19;49.06
60019;BME280;45870;42.528;26.740;2023-02-01T00:29:03;99683.34;;;7.42;51.11
60019;BME280;45870;42.528;26.740;2023-02-01T00:31:29;99636.44;;;7.14;50.89
60019;BME280;45870;42.528;26.740;2023-02-01T00:33:56;99688.81;;;6.32;55.36
60019;BME280;45870;42.528;26.740;2023-02-01T00:36:22;99687.56;;;6.41;55.08
60019;BME280;45870;42.528;26.740;2023-02-01T00:38:48;99692.44;;;6.90;53.96
60019;BME280;45870;42.528;26.740;2023-02-01T00:41:17;99676.00;;;6.61;54.97
60019;BME280;45870;42.528;26.740;2023-02-01T00:43:45;99624.25;;;6.47;54.10
60019;BME280;45870;42.528;26.740;2023-02-01T00:46:13;99687.56;;;6.15;56.45
60019;BME280;45870;42.528;26.740;2023-02-01T00:48:39;99687.09;;;6.84;54.42
60019;BME280;45870;42.528;26.740;2023-02-01T00:51:23;99688.50;;;6.99;54.54
60019;BME280;45870;42.528;26.740;2023-02-01T00:53:50;99682.75;;;6.89;54.03
60019;BME280;45870;42.528;26.740;2023-02-01T00:56:18;99683.03;;;7.26;53.05
60019;BME280;45870;42.528;26.740;2023-02-01T00:58:44;99679.94;;;6.25;56.34
60019;BME280;45870;42.528;26.740;2023-02-01T01:01:18;99681.78;;;6.44;55.94
60019;BME280;45870;42.528;26.740;2023-02-01T01:03:47;99684.06;;;6.34;56.55
60019;BME280;45870;42.528;26.740;2023-02-01T01:06:19;99657.88;;;7.20;53.79
60019;BME280;45870;42.528;26.740;2023-02-01T01:08:46;99685.03;;;6.73;54.96
60019;BME280;45870;42.528;26.740;2023-02-01T01:11:18;99683.00;;;6.75;55.01
60019;BME280;45870;42.528;26.740;2023-02-01T01:13:46;99622.34;;;7.18;52.52
60019;BME280;45870;42.528;26.740;2023-02-01T01:16:13;99680.72;;;6.72;55.22
60019;BME280;45870;42.528;26.740;2023-02-01T01:18:40;99597.41;;;7.11;52.44
60019;BME280;45870;42.528;26.740;2023-02-01T01:21:07;99676.13;;;6.92;53.54
60019;BME280;45870;42.528;26.740;2023-02-01T01:23:38;99666.91;;;7.64;51.60
60019;BME280;45870;42.528;26.740;2023-02-01T01:26:10;99581.22;;;7.87;49.72
60019;BME280;45870;42.528;26.740;2023-02-01T01:28:36;99604.69;;;8.23;48.24
60019;BME280;45870;42.528;26.740;2023-02-01T01:31:02;99661.66;;;8.38;48.77
60019;BME280;45870;42.528;26.740;2023-02-01T01:33:29;99616.28;;;8.23;48.29
60019;BME280;45870;42.528;26.740;2023-02-01T01:35:55;99625.59;;;8.45;48.34
60019;BME280;45870;42.528;26.740;2023-02-01T01:38:22;99651.84;;;8.68;47.63
60019;BME280;45870;42.528;26.740;2023-02-01T01:40:48;99656.50;;;9.16;46.77
60019;BME280;45870;42.528;26.740;2023-02-01T01:43:44;99640.13;;;8.38;47.54
60019;BME280;45870;42.528;26.740;2023-02-01T01:46:06;99661.88;;;8.36;47.99
60019;BME280;45870;42.528;26.740;2023-02-01T01:48:32;99667.53;;;9.44;45.36
60019;BME280;45870;42.528;26.740;2023-02-01T01:51:05;99667.44;;;9.50;45.11
60019;BME280;45870;42.528;26.740;2023-02-01T01:53:39;99673.91;;;9.49;45.22
60019;BME280;45870;42.528;26.740;2023-02-01T01:56:08;99675.03;;;8.44;47.99
60019;BME280;45870;42.528;26.740;2023-02-01T01:58:36;99677.50;;;8.21;48.85
60019;BME280;45870;42.528;26.740;2023-02-01T02:01:02;99675.59;;;8.53;47.45
60019;BME280;45870;42.528;26.740;2023-02-01T02:03:40;99674.50;;;8.36;48.61
60019;BME280;45870;42.528;26.740;2023-02-01T02:09:02;99672.13;;;9.07;46.80
60019;BME280;45870;42.528;26.740;2023-02-01T02:11:28;99662.06;;;9.80;43.90
60019;BME280;45870;42.528;26.740;2023-02-01T02:13:57;99659.56;;;9.79;43.53
60019;BME280;45870;42.528;26.740;2023-02-01T02:24:55;99674.41;;;9.99;41.93
60019;BME280;45870;42.528;26.740;2023-02-01T02:41:19;99666.25;;;7.75;47.26
60019;BME280;45870;42.528;26.740;2023-02-01T02:47:23;99670.69;;;8.19;45.84
60019;BME280;45870;42.528;26.740;2023-02-01T02:50:05;99664.97;;;8.09;45.63
60019;BME280;45870;42.528;26.740;2023-02-01T02:52:59;99647.31;;;7.63;46.41
60019;BME280;45870;42.528;26.740;2023-02-01T02:55:46;99666.91;;;7.26;47.53
60019;BME280;45870;42.528;26.740;2023-02-01T02:58:13;99669.78;;;8.00;45.66
60019;BME280;45870;42.528;26.740;2023-02-01T03:00:59;99658.16;;;7.43;46.09
60019;BME280;45870;42.528;26.740;2023-02-01T03:03:43;99654.44;;;6.93;47.75
60019;BME280;45870;42.528;26.740;2023-02-01T03:06:28;99660.44;;;8.09;44.58
60019;BME280;45870;42.528;26.740;2023-02-01T03:08:57;99646.06;;;5.72;50.24
60019;BME280;45870;42.528;26.740;2023-02-01T03:11:24;99667.75;;;6.49;49.43
60019;BME280;45870;42.528;26.740;2023-02-01T03:14:16;99665.38;;;6.98;48.28
60019;BME280;45870;42.528;26.740;2023-02-01T03:16:52;99471.00;;;5.33;49.07
60019;BME280;45870;42.528;26.740;2023-02-01T03:19:31;99683.13;;;6.99;47.85
60019;BME280;45870;42.528;26.740;2023-02-01T03:22:05;99671.81;;;7.35;47.55
60019;BME280;45870;42.528;26.740;2023-02-01T03:24:43;99666.91;;;7.70;46.74
60019;BME280;45870;42.528;26.740;2023-02-01T03:32:41;99691.50;;;7.23;47.01
60019;BME280;45870;42.528;26.740;2023-02-01T03:35:40;99681.41;;;7.12;47.55
60019;BME280;45870;42.528;26.740;2023-02-01T03:44:12;99699.28;;;6.73;49.52
60019;BME280;45870;42.528;26.740;2023-02-01T03:46:59;99696.66;;;8.56;44.77
60019;BME280;45870;42.528;26.740;2023-02-01T03:49:43;99642.00;;;8.37;44.13
60019;BME280;45870;42.528;26.740;2023-02-01T03:52:14;99702.16;;;8.43;44.50
60019;BME280;45870;42.528;26.740;2023-02-01T03:54:44;99679.16;;;9.08;43.26
60019;BME280;45870;42.528;26.740;2023-02-01T03:57:13;99709.84;;;9.07;42.69
60019;BME280;45870;42.528;26.740;2023-02-01T03:59:51;99706.03;;;7.91;46.10
60019;BME280;45870;42.528;26.740;2023-02-01T04:02:18;99708.56;;;9.46;42.87
60019;BME280;45870;42.528;26.740;2023-02-01T04:04:44;99703.56;;;7.51;46.26
60019;BME280;45870;42.528;26.740;2023-02-01T04:07:11;99699.47;;;7.49;46.73
60019;BME280;45870;42.528;26.740;2023-02-01T04:09:37;99700.22;;;7.94;45.81
60019;BME280;45870;42.528;26.740;2023-02-01T04:12:03;99713.47;;;8.20;45.23
60019;BME280;45870;42.528;26.740;2023-02-01T04:14:29;99712.88;;;8.18;45.36
60019;BME280;45870;42.528;26.740;2023-02-01T04:16:55;99723.88;;;8.66;43.39
60019;BME280;45870;42.528;26.740;2023-02-01T04:19:24;99724.53;;;9.04;42.95
60019;BME280;45870;42.528;26.740;2023-02-01T04:21:50;99724.09;;;9.26;41.77
60019;BME280;45870;42.528;26.740;2023-02-01T04:24:16;99740.34;;;8.27;44.29
60019;BME280;45870;42.528;26.740;2023-02-01T04:26:42;99734.13;;;7.95;45.64
60019;BME280;45870;42.528;26.740;2023-02-01T04:29:09;99738.09;;;8.17;44.81
60019;BME280;45870;42.528;26.740;2023-02-01T04:31:36;99709.38;;;8.18;44.41
60019;BME280;45870;42.528;26.740;2023-02-01T04:34:02;99743.88;;;8.52;43.67
60019;BME280;45870;42.528;26.740;2023-02-01T04:36:28;99735.63;;;8.96;43.01
60019;BME280;45870;42.528;26.740;2023-02-01T04:38:54;99735.47;;;9.94;40.13
60019;BME280;45870;42.528;26.740;2023-02-01T04:41:20;99740.44;;;9.79;40.66
60019;BME280;45870;42.528;26.740;2023-02-01T04:43:51;99744.47;;;9.03;42.77
60019;BME280;45870;42.528;26.740;2023-02-01T04:46:18;99751.31;;;9.54;41.96
60019;BME280;45870;42.528;26.740;2023-02-01T04:48:44;99754.13;;;9.11;42.63
60019;BME280;45870;42.528;26.740;2023-02-01T04:51:11;99705.25;;;9.26;41.07
60019;BME280;45870;42.528;26.740;2023-02-01T04:53:38;99760.00;;;10.22;39.39
60019;BME280;45870;42.528;26.740;2023-02-01T04:56:04;99758.38;;;10.33;39.04
60019;BME280;45870;42.528;26.740;2023-02-01T04:58:30;99765.03;;;9.71;41.75
60019;BME280;45870;42.528;26.740;2023-02-01T05:00:56;99757.47;;;9.61;41.73
60019;BME280;45870;42.528;26.740;2023-02-01T05:03:22;99760.69;;;9.99;40.32
60019;BME280;45870;42.528;26.740;2023-02-01T05:05:48;99761.00;;;10.51;39.46
60019;BME280;45870;42.528;26.740;2023-02-01T05:08:14;99754.63;;;8.77;44.00
60019;BME280;45870;42.528;26.740;2023-02-01T05:10:40;99764.28;;;9.45;41.69
60019;BME280;45870;42.528;26.740;2023-02-01T05:13:08;99766.28;;;8.46;43.91
60019;BME280;45870;42.528;26.740;2023-02-01T05:15:53;99546.66;;;7.90;42.71
60019;BME280;45870;42.528;26.740;2023-02-01T05:18:19;99770.69;;;10.29;40.14
60019;BME280;45870;42.528;26.740;2023-02-01T05:20:45;99769.50;;;11.13;38.53
60019;BME280;45870;42.528;26.740;2023-02-01T05:23:11;99774.53;;;11.09;37.81
60019;BME280;45870;42.528;26.740;2023-02-01T05:25:37;99776.19;;;11.10;38.69
60019;BME280;45870;42.528;26.740;2023-02-01T05:28:03;99783.81;;;11.25;38.03
60019;BME280;45870;42.528;26.740;2023-02-01T05:30:30;99771.84;;;11.09;38.59
60019;BME280;45870;42.528;26.740;2023-02-01T05:32:58;99791.22;;;11.06;38.85
60019;BME280;45870;42.528;26.740;2023-02-01T05:35:24;99796.53;;;11.01;39.33
60019;BME280;45870;42.528;26.740;2023-02-01T05:37:50;99799.09;;;11.08;38.80
60019;BME280;45870;42.528;26.740;2023-02-01T05:40:16;99801.09;;;11.24;38.17
60019;BME280;45870;42.528;26.740;2023-02-01T05:42:42;99807.44;;;11.18;38.43
60019;BME280;45870;42.528;26.740;2023-02-01T05:45:08;99796.84;;;11.16;38.66
60019;BME280;45870;42.528;26.740;2023-02-01T05:47:34;99679.78;;;10.52;37.93
60019;BME280;45870;42.528;26.740;2023-02-01T05:50:00;99807.53;;;11.46;37.71
60019;BME280;45870;42.528;26.740;2023-02-01T05:52:26;99802.69;;;11.60;38.20
60019;BME280;45870;42.528;26.740;2023-02-01T05:54:52;99711.09;;;11.23;36.96
60019;BME280;45870;42.528;26.740;2023-02-01T05:57:18;99805.38;;;11.83;36.88
60019;BME280;45870;42.528;26.740;2023-02-01T05:59:44;99804.44;;;11.66;37.04
60019;BME280;45870;42.528;26.740;2023-02-01T06:02:11;99799.06;;;9.83;40.78
60019;BME280;45870;42.528;26.740;2023-02-01T06:04:37;99797.09;;;8.75;43.33
60019;BME280;45870;42.528;26.740;2023-02-01T06:07:06;99806.84;;;8.94;43.40
60019;BME280;45870;42.528;26.740;2023-02-01T06:09:35;99803.03;;;9.99;41.55
60019;BME280;45870;42.528;26.740;2023-02-01T06:12:59;99803.78;;;9.33;41.75
60019;BME280;45870;42.528;26.740;2023-02-01T06:15:59;99800.13;;;10.30;40.25
60019;BME280;45870;42.528;26.740;2023-02-01T06:18:26;99807.41;;;11.64;37.25
60019;BME280;45870;42.528;26.740;2023-02-01T06:20:54;99815.19;;;12.00;37.07
60019;BME280;45870;42.528;26.740;2023-02-01T06:23:28;99806.13;;;11.32;37.67
60019;BME280;45870;42.528;26.740;2023-02-01T06:26:03;99772.94;;;10.43;40.49
60019;BME280;45870;42.528;26.740;2023-02-01T06:28:29;99817.06;;;11.14;39.12
60019;BME280;45870;42.528;26.740;2023-02-01T06:30:56;99753.66;;;12.69;36.19
60019;BME280;45870;42.528;26.740;2023-02-01T06:33:26;99805.50;;;12.16;37.15
60019;BME280;45870;42.528;26.740;2023-02-01T06:35:59;99655.38;;;10.36;38.75
60019;BME280;45870;42.528;26.740;2023-02-01T06:38:26;99728.69;;;11.89;36.60
60019;BME280;45870;42.528;26.740;2023-02-01T06:40:53;99800.19;;;13.16;34.52
60019;BME280;45870;42.528;26.740;2023-02-01T06:43:21;99810.22;;;14.14;33.45
60019;BME280;45870;42.528;26.740;2023-02-01T06:45:47;99647.97;;;13.68;32.85
60019;BME280;45870;42.528;26.740;2023-02-01T06:48:13;99812.81;;;15.53;31.06
60019;BME280;45870;42.528;26.740;2023-02-01T06:50:39;99810.22;;;15.36;31.78
60019;BME280;45870;42.528;26.740;2023-02-01T06:53:05;99825.59;;;14.84;32.14
60019;BME280;45870;42.528;26.740;2023-02-01T06:55:30;99823.06;;;14.45;32.86
60019;BME280;45870;42.528;26.740;2023-02-01T06:57:56;99834.97;;;16.39;30.42
60019;BME280;45870;42.528;26.740;2023-02-01T07:00:23;99833.75;;;16.10;30.17
60019;BME280;45870;42.528;26.740;2023-02-01T07:02:49;99834.06;;;16.23;30.44
60019;BME280;45870;42.528;26.740;2023-02-01T07:05:15;99823.16;;;15.51;31.24
60019;BME280;45870;42.528;26.740;2023-02-01T07:07:41;99840.09;;;13.76;33.95
60019;BME280;45870;42.528;26.740;2023-02-01T07:10:08;99831.22;;;14.02;32.33
60019;BME280;45870;42.528;26.740;2023-02-01T07:12:34;99837.50;;;13.64;33.89
60019;BME280;45870;42.528;26.740;2023-02-01T07:15:01;99838.50;;;12.01;36.25
60019;BME280;45870;42.528;26.740;2023-02-01T07:17:28;99659.72;;;12.36;34.95
60019;BME280;45870;42.528;26.740;2023-02-01T07:19:55;99837.34;;;12.54;35.36
60019;BME280;45870;42.528;26.740;2023-02-01T07:22:21;99837.72;;;13.41;35.00
60019;BME280;45870;42.528;26.740;2023-02-01T07:24:46;99840.09;;;13.54;34.50
60019;BME280;45870;42.528;26.740;2023-02-01T07:27:12;99830.41;;;13.08;34.92
60019;BME280;45870;42.528;26.740;2023-02-01T07:29:38;99669.66;;;11.86;34.33
60019;BME280;45870;42.528;26.740;2023-02-01T07:32:04;99846.47;;;12.08;35.89
60019;BME280;45870;42.528;26.740;2023-02-01T07:34:30;99838.66;;;13.68;34.38
60019;BME280;45870;42.528;26.740;2023-02-01T07:36:56;99845.84;;;14.01;32.63
60019;BME280;45870;42.528;26.740;2023-02-01T07:39:22;99840.06;;;14.14;32.76
60019;BME280;45870;42.528;26.740;2023-02-01T07:41:48;99845.63;;;14.02;32.44
60019;BME280;45870;42.528;26.740;2023-02-01T07:44:14;99839.09;;;13.60;34.07
60019;BME280;45870;42.528;26.740;2023-02-01T07:46:40;99845.38;;;12.21;36.13
60019;BME280;45870;42.528;26.740;2023-02-01T07:49:05;99850.81;;;12.09;35.41
60019;BME280;45870;42.528;26.740;2023-02-01T07:51:31;99828.72;;;12.57;34.33
60019;BME280;45870;42.528;26.740;2023-02-01T07:53:57;99848.47;;;12.86;33.47
60019;BME280;45870;42.528;26.740;2023-02-01T07:56:24;99842.22;;;12.40;35.00
60019;BME280;45870;42.528;26.740;2023-02-01T07:58:52;99856.03;;;12.84;35.10
60019;BME280;45870;42.528;26.740;2023-02-01T08:01:24;99712.50;;;13.22;32.63
60019;BME280;45870;42.528;26.740;2023-02-01T08:03:59;99852.41;;;11.24;35.15
60019;BME280;45870;42.528;26.740;2023-02-01T08:06:26;99857.91;;;11.87;34.73
60019;BME280;45870;42.528;26.740;2023-02-01T08:08:53;99845.97;;;10.60;36.99
60019;BME280;45870;42.528;26.740;2023-02-01T08:11:21;99853.22;;;11.47;36.59
60019;BME280;45870;42.528;26.740;2023-02-01T08:13:48;99861.69;;;10.51;38.70
60019;BME280;45870;42.528;26.740;2023-02-01T08:16:15;99862.63;;;10.09;38.08
60019;BME280;45870;42.528;26.740;2023-02-01T08:18:42;99782.09;;;8.61;39.83
60019;BME280;45870;42.528;26.740;2023-02-01T08:21:10;99861.72;;;9.42;39.61
60019;BME280;45870;42.528;26.740;2023-02-01T08:23:37;99865.34;;;9.91;38.28
60019;BME280;45870;42.528;26.740;2023-02-01T08:26:24;99866.50;;;9.40;39.09
60019;BME280;45870;42.528;26.740;2023-02-01T08:28:53;99867.75;;;9.99;38.04
60019;BME280;45870;42.528;26.740;2023-02-01T08:31:21;99868.41;;;9.58;37.94
60019;BME280;45870;42.528;26.740;2023-02-01T08:33:50;99870.16;;;11.08;37.71
60019;BME280;45870;42.528;26.740;2023-02-01T08:36:17;99871.81;;;11.32;37.52
60019;BME280;45870;42.528;26.740;2023-02-01T08:38:43;99868.03;;;11.33;35.50
60019;BME280;45870;42.528;26.740;2023-02-01T08:41:12;99856.44;;;10.38;38.34
60019;BME280;45870;42.528;26.740;2023-02-01T08:43:38;99878.47;;;10.24;39.57
60019;BME280;45870;42.528;26.740;2023-02-01T08:46:05;99776.69;;;10.31;36.85
60019;BME280;45870;42.528;26.740;2023-02-01T08:48:32;99864.44;;;9.97;36.88
60019;BME280;45870;42.528;26.740;2023-02-01T08:51:01;99871.63;;;9.67;39.21
60019;BME280;45870;42.528;26.740;2023-02-01T08:53:27;99870.69;;;10.16;38.59
60019;BME280;45870;42.528;26.740;2023-02-01T08:55:53;99869.00;;;9.78;39.60
60019;BME280;45870;42.528;26.740;2023-02-01T08:58:18;99849.47;;;10.90;37.08
60019;BME280;45870;42.528;26.740;2023-02-01T09:00:45;99835.56;;;10.75;36.13
60019;BME280;45870;42.528;26.740;2023-02-01T09:03:11;99863.38;;;10.34;38.64
60019;BME280;45870;42.528;26.740;2023-02-01T09:05:38;99859.94;;;11.22;36.40
60019;BME280;45870;42.528;26.740;2023-02-01T09:08:04;99861.47;;;11.41;36.57
60019;BME280;45870;42.528;26.740;2023-02-01T09:10:30;99845.84;;;11.20;36.06
60019;BME280;45870;42.528;26.740;2023-02-01T09:12:57;99865.34;;;11.10;36.91
60019;BME280;45870;42.528;26.740;2023-02-01T09:15:22;99866.38;;;11.09;36.92
60019;BME280;45870;42.528;26.740;2023-02-01T09:17:48;99862.03;;;11.89;35.32
60019;BME280;45870;42.528;26.740;2023-02-01T09:20:14;99862.06;;;12.18;34.96
60019;BME280;45870;42.528;26.740;2023-02-01T09:22:40;99861.47;;;11.64;35.61
60019;BME280;45870;42.528;26.740;2023-02-01T09:25:06;99843.84;;;10.50;38.12
60019;BME280;45870;42.528;26.740;2023-02-01T09:27:33;99844.56;;;10.58;37.75
60019;BME280;45870;42.528;26.740;2023-02-01T09:29:59;99838.66;;;10.49;37.15
60019;BME280;45870;42.528;26.740;2023-02-01T09:32:24;99840.59;;;9.39;38.48
60019;BME280;45870;42.528;26.740;2023-02-01T09:34:51;99844.00;;;9.53;38.59
60019;BME280;45870;42.528;26.740;2023-02-01T09:37:17;99839.72;;;10.00;37.47
60019;BME280;45870;42.528;26.740;2023-02-01T09:39:43;99828.88;;;9.09;38.91
60019;BME280;45870;42.528;26.740;2023-02-01T09:47:23;99819.81;;;9.83;37.83
60019;BME280;45870;42.528;26.740;2023-02-01T09:50:14;99816.84;;;9.12;38.89
60019;BME280;45870;42.528;26.740;2023-02-01T09:52:55;99801.78;;;9.65;36.79
60019;BME280;45870;42.528;26.740;2023-02-01T09:55:36;99811.41;;;10.09;37.55
60019;BME280;45870;42.528;26.740;2023-02-01T09:58:19;99780.38;;;10.00;36.32
60019;BME280;45870;42.528;26.740;2023-02-01T10:00:55;99789.56;;;9.81;35.93
60019;BME280;45870;42.528;26.740;2023-02-01T10:03:25;99788.56;;;10.53;37.24
60019;BME280;45870;42.528;26.740;2023-02-01T10:09:14;99792.78;;;10.49;36.98
60019;BME280;45870;42.528;26.740;2023-02-01T10:17:58;99775.50;;;10.27;35.46
60019;BME280;45870;42.528;26.740;2023-02-01T10:20:36;99798.94;;;10.68;37.01
60019;BME280;45870;42.528;26.740;2023-02-01T10:23:38;99783.84;;;9.89;36.88
60019;BME280;45870;42.528;26.740;2023-02-01T10:26:19;99801.34;;;10.46;36.57
60019;BME280;45870;42.528;26.740;2023-02-01T10:28:55;99763.63;;;10.28;35.54
60019;BME280;45870;42.528;26.740;2023-02-01T10:31:25;99800.59;;;10.92;36.81
60019;BME280;45870;42.528;26.740;2023-02-01T10:33:57;99784.53;;;10.02;37.14
60019;BME280;45870;42.528;26.740;2023-02-01T10:36:31;99785.81;;;11.29;35.75
60019;BME280;45870;42.528;26.740;2023-02-01T10:38:59;99770.94;;;10.09;36.38
60019;BME280;45870;42.528;26.740;2023-02-01T10:41:31;99781.69;;;11.38;35.63
60019;BME280;45870;42.528;26.740;2023-02-01T10:43:59;99780.59;;;11.63;35.10
60019;BME280;45870;42.528;26.740;2023-02-01T10:46:26;99757.75;;;10.84;37.13
60019;BME280;45870;42.528;26.740;2023-02-01T10:48:54;99758.19;;;9.86;36.18
60019;BME280;45870;42.528;26.740;2023-02-01T10:51:42;99767.72;;;10.95;37.23
60019;BME280;45870;42.528;26.740;2023-02-01T10:54:18;99751.63;;;10.53;35.87
60019;BME280;45870;42.528;26.740;2023-02-01T10:56:46;99749.47;;;10.32;36.68
60019;BME280;45870;42.528;26.740;2023-02-01T10:59:21;99755.16;;;10.89;35.19
60019;BME280;45870;42.528;26.740;2023-02-01T11:01:49;99742.59;;;11.06;36.66
60019;BME280;45870;42.528;26.740;2023-02-01T11:04:19;99709.47;;;10.29;36.43
60019;BME280;45870;42.528;26.740;2023-02-01T11:06:48;99683.94;;;9.72;37.29
60019;BME280;45870;42.528;26.740;2023-02-01T11:09:19;99756.31;;;11.28;35.47
60019;BME280;45870;42.528;26.740;2023-02-01T11:14:15;99743.78;;;10.87;36.87
60019;BME280;45870;42.528;26.740;2023-02-01T11:16:48;99740.91;;;12.20;35.46
60019;BME280;45870;42.528;26.740;2023-02-01T11:19:16;99721.88;;;11.86;35.80
60019;BME280;45870;42.528;26.740;2023-02-01T11:21:44;99718.28;;;12.26;35.92
60019;BME280;45870;42.528;26.740;2023-02-01T11:24:36;99728.97;;;12.04;37.08
60019;BME280;45870;42.528;26.740;2023-02-01T11:27:17;99730.50;;;11.72;37.80
60019;BME280;45870;42.528;26.740;2023-02-01T11:29:49;99721.22;;;11.68;38.00
60019;BME280;45870;42.528;26.740;2023-02-01T11:32:17;99735.78;;;10.92;37.10
60019;BME280;45870;42.528;26.740;2023-02-01T11:34:47;99723.34;;;11.66;36.66
60019;BME280;45870;42.528;26.740;2023-02-01T11:39:54;99730.16;;;10.93;38.57
60019;BME280;45870;42.528;26.740;2023-02-01T11:42:20;99734.38;;;11.76;37.46
60019;BME280;45870;42.528;26.740;2023-02-01T11:44:47;99730.03;;;10.88;37.26
60019;BME280;45870;42.528;26.740;2023-02-01T11:49:59;99697.69;;;11.68;36.07
60019;BME280;45870;42.528;26.740;2023-02-01T11:52:41;99726.13;;;11.19;37.32
60019;BME280;45870;42.528;26.740;2023-02-01T12:00:49;99726.41;;;11.18;37.08
60019;BME280;45870;42.528;26.740;2023-02-01T12:03:33;99718.91;;;11.48;37.30
60019;BME280;45870;42.528;26.740;2023-02-01T12:06:12;99726.00;;;11.37;36.89
60019;BME280;45870;42.528;26.740;2023-02-01T12:08:56;99721.69;;;11.13;36.99
60019;BME280;45870;42.528;26.740;2023-02-01T12:14:32;99713.69;;;11.70;36.17
60019;BME280;45870;42.528;26.740;2023-02-01T12:20:10;99697.81;;;13.40;33.85
60019;BME280;45870;42.528;26.740;2023-02-01T12:23:02;99696.69;;;12.97;34.51
60019;BME280;45870;42.528;26.740;2023-02-01T12:25:53;99645.16;;;13.14;33.69
60019;BME280;45870;42.528;26.740;2023-02-01T12:28:42;99682.06;;;12.82;34.84
60019;BME280;45870;42.528;26.740;2023-02-01T12:34:13;99687.81;;;12.85;35.18
60019;BME280;45870;42.528;26.740;2023-02-01T12:36:58;99679.19;;;12.88;35.16
60019;BME280;45870;42.528;26.740;2023-02-01T12:39:39;99680.34;;;13.31;34.51
60019;BME280;45870;42.528;26.740;2023-02-01T12:42:25;99688.34;;;13.21;34.70
60019;BME280;45870;42.528;26.740;2023-02-01T12:47:54;99672.44;;;13.51;34.42
60019;BME280;45870;42.528;26.740;2023-02-01T12:50:28;99682.94;;;12.66;35.59
60019;BME280;45870;42.528;26.740;2023-02-01T12:53:10;99675.16;;;11.63;37.81
60019;BME280;45870;42.528;26.740;2023-02-01T12:55:43;99683.97;;;12.81;35.18
60019;BME280;45870;42.528;26.740;2023-02-01T12:58:39;99693.00;;;11.75;36.70
60019;BME280;45870;42.528;26.740;2023-02-01T13:01:07;99687.66;;;11.52;38.17
60019;BME280;45870;42.528;26.740;2023-02-01T13:03:52;99689.94;;;13.38;34.87
60019;BME280;45870;42.528;26.740;2023-02-01T13:06:24;99681.22;;;11.81;36.86
60019;BME280;45870;42.528;26.740;2023-02-01T13:11:28;99692.69;;;12.50;35.44
60019;BME280;45870;42.528;26.740;2023-02-01T13:16:37;99693.75;;;11.59;37.46
60019;BME280;45870;42.528;26.740;2023-02-01T13:22:06;99687.19;;;12.62;36.63
60019;BME280;45870;42.528;26.740;2023-02-01T13:24:44;99687.03;;;12.51;36.84
60019;BME280;45870;42.528;26.740;2023-02-01T13:27:13;99621.25;;;10.65;39.12
60019;BME280;45870;42.528;26.740;2023-02-01T13:29:47;99679.66;;;11.57;36.86
60019;BME280;45870;42.528;26.740;2023-02-01T13:32:32;99661.81;;;12.01;36.32
60019;BME280;45870;42.528;26.740;2023-02-01T13:35:19;99675.78;;;11.01;37.85
60019;BME280;45870;42.528;26.740;2023-02-01T13:43:24;99670.69;;;13.18;34.13
60019;BME280;45870;42.528;26.740;2023-02-01T13:45:52;99665.63;;;13.48;33.51
60019;BME280;45870;42.528;26.740;2023-02-01T13:48:31;99669.75;;;13.29;33.97
60019;BME280;45870;42.528;26.740;2023-02-01T13:50:59;99675.38;;;13.23;34.70
60019;BME280;45870;42.528;26.740;2023-02-01T13:53:32;99630.28;;;13.17;34.05
60019;BME280;45870;42.528;26.740;2023-02-01T13:56:05;99673.13;;;13.63;34.14
60019;BME280;45870;42.528;26.740;2023-02-01T13:58:37;99675.13;;;13.08;34.36
60019;BME280;45870;42.528;26.740;2023-02-01T14:03:56;99660.63;;;13.35;33.92
60019;BME280;45870;42.528;26.740;2023-02-01T14:16:41;99671.13;;;14.71;31.52
60019;BME280;45870;42.528;26.740;2023-02-01T14:19:30;99671.63;;;13.99;33.20
60019;BME280;45870;42.528;26.740;2023-02-01T14:24:54;99664.19;;;14.48;32.05
60019;BME280;45870;42.528;26.740;2023-02-01T14:27:26;99662.41;;;13.73;32.97
60019;BME280;45870;42.528;26.740;2023-02-01T14:29:57;99666.34;;;15.30;30.57
60019;BME280;45870;42.528;26.740;2023-02-01T14:32:39;99659.09;;;15.51;30.47
60019;BME280;45870;42.528;26.740;2023-02-01T14:35:17;99566.63;;;15.51;29.22
60019;BME280;45870;42.528;26.740;2023-02-01T14:37:45;99653.16;;;14.01;32.46
60019;BME280;45870;42.528;26.740;2023-02-01T14:42:51;99671.34;;;14.00;32.85
60019;BME280;45870;42.528;26.740;2023-02-01T15:01:29;99671.34;;;15.53;31.09
60019;BME280;45870;42.528;26.740;2023-02-01T15:04:16;99663.06;;;16.30;30.01
60019;BME280;45870;42.528;26.740;2023-02-01T15:06:53;99673.03;;;15.74;30.59
60019;BME280;45870;42.528;26.740;2023-02-01T15:09:29;99668.50;;;16.30;30.26
60019;BME280;45870;42.528;26.740;2023-02-01T15:14:45;99660.06;;;16.37;29.88
60019;BME280;45870;42.528;26.740;2023-02-01T15:17:23;99663.97;;;14.91;32.89
60019;BME280;45870;42.528;26.740;2023-02-01T15:19:55;99625.38;;;15.57;30.86
60019;BME280;45870;42.528;26.740;2023-02-01T15:22:21;99661.97;;;16.11;30.61
60019;BME280;45870;42.528;26.740;2023-02-01T15:24:59;99666.03;;;16.24;30.36
60019;BME280;45870;42.528;26.740;2023-02-01T15:27:26;99670.00;;;15.66;31.10